KDEC/DEC METAR and TAF weather

Enter ICAO airport designator
Station Type Date Time Source
KDEC METAR 2021/09/23 15:54 UTC NOAA

KDEC 231554Z 29012G23KT 10SM CLR 17/06 A3008 RMK AO2 SLP185 T01720061 $


Station Type Date Time Source
KDEC Decoded METAR 2021/09/23 15:54 UTC NOAA

DECATUR AIRPORT, IL, United States (KDEC) 39-50N 88-52W 207M
Sep 23, 2021 - 11:54 AM EDT / 2021.09.23 1554 UTC
Wind: from the WNW (290 degrees) at 14 MPH (12 KT) gusting to 26 MPH (23 KT):0
Visibility: 10 mile(s):0
Sky conditions: clear
Temperature: 63.0 F (17.2 C)
Dew Point: 43.0 F (6.1 C)
Relative Humidity: 47%
Pressure (altimeter): 30.08 in. Hg (1018 hPa)
ob: KDEC 231554Z 29012G23KT 10SM CLR 17/06 A3008 RMK AO2 SLP185 T01720061
cycle: 16

Station Type Date Time Source
KDEC TAF 2021/09/23 12:22 UTC NOAA

TAF KDEC 231120Z 2312/2412 31007KT P6SM FEW250
FM231600 31014G22KT P6SM FEW250
FM240000 30007KT P6SM SKC
FM240600 25003KT P6SM SKC

Example: see airport list